sensor_id;sensor_type;location;lat;lon;timestamp;P1;durP1;ratioP1;P2;durP2;ratioP2
11319;SDS011;5715;48.234;14.320;2023-10-31T00:00:52;2.83;;;2.63;;
11319;SDS011;5715;48.234;14.320;2023-10-31T00:03:40;13.77;;;3.43;;
11319;SDS011;5715;48.234;14.320;2023-10-31T00:06:29;3.07;;;2.87;;
11319;SDS011;5715;48.234;14.320;2023-10-31T00:09:17;10.73;;;3.37;;
11319;SDS011;5715;48.234;14.320;2023-10-31T00:12:04;3.70;;;3.40;;
11319;SDS011;5715;48.234;14.320;2023-10-31T00:14:52;4.03;;;3.63;;
11319;SDS011;5715;48.234;14.320;2023-10-31T00:17:40;4.13;;;3.10;;
11319;SDS011;5715;48.234;14.320;2023-10-31T00:20:28;3.20;;;3.00;;
11319;SDS011;5715;48.234;14.320;2023-10-31T00:23:16;3.80;;;3.50;;
11319;SDS011;5715;48.234;14.320;2023-10-31T00:26:03;4.10;;;3.50;;
11319;SDS011;5715;48.234;14.320;2023-10-31T00:28:51;3.90;;;3.53;;
11319;SDS011;5715;48.234;14.320;2023-10-31T00:31:39;5.07;;;4.33;;
11319;SDS011;5715;48.234;14.320;2023-10-31T00:34:28;7.80;;;3.67;;
11319;SDS011;5715;48.234;14.320;2023-10-31T00:37:16;7.70;;;4.63;;
11319;SDS011;5715;48.234;14.320;2023-10-31T00:40:03;4.40;;;4.10;;
11319;SDS011;5715;48.234;14.320;2023-10-31T00:42:52;4.20;;;3.90;;
11319;SDS011;5715;48.234;14.320;2023-10-31T00:45:40;4.53;;;4.13;;
11319;SDS011;5715;48.234;14.320;2023-10-31T00:48:28;7.20;;;4.77;;
11319;SDS011;5715;48.234;14.320;2023-10-31T00:51:15;4.73;;;4.33;;
11319;SDS011;5715;48.234;14.320;2023-10-31T00:54:03;5.83;;;5.43;;
11319;SDS011;5715;48.234;14.320;2023-10-31T00:56:51;5.97;;;5.57;;
11319;SDS011;5715;48.234;14.320;2023-10-31T00:59:39;8.33;;;6.43;;
11319;SDS011;5715;48.234;14.320;2023-10-31T01:02:26;5.00;;;4.70;;
11319;SDS011;5715;48.234;14.320;2023-10-31T01:05:14;4.10;;;3.90;;
11319;SDS011;5715;48.234;14.320;2023-10-31T01:08:02;4.07;;;3.87;;
11319;SDS011;5715;48.234;14.320;2023-10-31T01:10:49;4.27;;;3.97;;
11319;SDS011;5715;48.234;14.320;2023-10-31T01:13:37;4.30;;;4.00;;
11319;SDS011;5715;48.234;14.320;2023-10-31T01:16:25;4.00;;;3.70;;
11319;SDS011;5715;48.234;14.320;2023-10-31T01:19:12;3.97;;;3.77;;
11319;SDS011;5715;48.234;14.320;2023-10-31T01:22:00;4.73;;;4.43;;
11319;SDS011;5715;48.234;14.320;2023-10-31T01:24:47;4.17;;;3.87;;
11319;SDS011;5715;48.234;14.320;2023-10-31T01:27:35;3.97;;;3.63;;
11319;SDS011;5715;48.234;14.320;2023-10-31T01:30:22;7.17;;;6.77;;
11319;SDS011;5715;48.234;14.320;2023-10-31T01:33:10;6.60;;;4.37;;
11319;SDS011;5715;48.234;14.320;2023-10-31T01:35:58;4.93;;;4.63;;
11319;SDS011;5715;48.234;14.320;2023-10-31T01:38:45;5.13;;;4.83;;
11319;SDS011;5715;48.234;14.320;2023-10-31T01:41:33;5.50;;;5.00;;
11319;SDS011;5715;48.234;14.320;2023-10-31T01:44:20;6.80;;;6.40;;
11319;SDS011;5715;48.234;14.320;2023-10-31T01:47:08;5.23;;;4.93;;
11319;SDS011;5715;48.234;14.320;2023-10-31T01:49:56;5.33;;;4.43;;
11319;SDS011;5715;48.234;14.320;2023-10-31T01:52:45;4.53;;;4.30;;
11319;SDS011;5715;48.234;14.320;2023-10-31T01:55:33;4.87;;;4.57;;
11319;SDS011;5715;48.234;14.320;2023-10-31T01:58:23;5.03;;;4.57;;
11319;SDS011;5715;48.234;14.320;2023-10-31T02:01:17;4.97;;;4.50;;
11319;SDS011;5715;48.234;14.320;2023-10-31T02:04:06;5.03;;;4.73;;
11319;SDS011;5715;48.234;14.320;2023-10-31T02:06:54;5.30;;;5.00;;
11319;SDS011;5715;48.234;14.320;2023-10-31T02:09:41;4.93;;;4.67;;
11319;SDS011;5715;48.234;14.320;2023-10-31T02:12:32;4.50;;;4.27;;
11319;SDS011;5715;48.234;14.320;2023-10-31T02:15:22;5.50;;;5.20;;
11319;SDS011;5715;48.234;14.320;2023-10-31T02:18:10;5.43;;;5.13;;
11319;SDS011;5715;48.234;14.320;2023-10-31T02:20:58;4.40;;;4.20;;
11319;SDS011;5715;48.234;14.320;2023-10-31T02:23:59;4.77;;;4.47;;
11319;SDS011;5715;48.234;14.320;2023-10-31T02:26:48;5.63;;;5.13;;
11319;SDS011;5715;48.234;14.320;2023-10-31T02:29:36;10.50;;;4.67;;
11319;SDS011;5715;48.234;14.320;2023-10-31T02:32:25;4.90;;;4.67;;
11319;SDS011;5715;48.234;14.320;2023-10-31T02:35:16;4.97;;;4.67;;
11319;SDS011;5715;48.234;14.320;2023-10-31T02:38:04;4.80;;;4.53;;
11319;SDS011;5715;48.234;14.320;2023-10-31T02:40:52;4.53;;;4.23;;
11319;SDS011;5715;48.234;14.320;2023-10-31T02:43:40;5.07;;;4.77;;
11319;SDS011;5715;48.234;14.320;2023-10-31T02:46:28;4.63;;;4.43;;
11319;SDS011;5715;48.234;14.320;2023-10-31T02:49:15;5.20;;;4.90;;
11319;SDS011;5715;48.234;14.320;2023-10-31T02:52:03;5.17;;;4.87;;
11319;SDS011;5715;48.234;14.320;2023-10-31T02:54:51;4.53;;;4.33;;
11319;SDS011;5715;48.234;14.320;2023-10-31T02:57:38;4.70;;;4.30;;
11319;SDS011;5715;48.234;14.320;2023-10-31T03:00:26;4.77;;;4.57;;
11319;SDS011;5715;48.234;14.320;2023-10-31T03:03:13;4.93;;;4.63;;
11319;SDS011;5715;48.234;14.320;2023-10-31T03:06:01;4.10;;;3.90;;
11319;SDS011;5715;48.234;14.320;2023-10-31T03:08:49;4.53;;;4.33;;
11319;SDS011;5715;48.234;14.320;2023-10-31T03:11:36;4.47;;;4.27;;
11319;SDS011;5715;48.234;14.320;2023-10-31T03:14:24;4.97;;;4.77;;
11319;SDS011;5715;48.234;14.320;2023-10-31T03:17:12;5.00;;;4.80;;
11319;SDS011;5715;48.234;14.320;2023-10-31T03:19:59;4.20;;;4.00;;
11319;SDS011;5715;48.234;14.320;2023-10-31T03:22:47;5.03;;;4.83;;
11319;SDS011;5715;48.234;14.320;2023-10-31T03:25:34;4.20;;;4.00;;
11319;SDS011;5715;48.234;14.320;2023-10-31T03:28:22;4.37;;;4.17;;
11319;SDS011;5715;48.234;14.320;2023-10-31T03:31:11;5.37;;;5.10;;
11319;SDS011;5715;48.234;14.320;2023-10-31T03:33:59;3.97;;;3.63;;
11319;SDS011;5715;48.234;14.320;2023-10-31T03:36:47;5.00;;;4.80;;
11319;SDS011;5715;48.234;14.320;2023-10-31T03:39:34;3.90;;;3.70;;
11319;SDS011;5715;48.234;14.320;2023-10-31T03:42:22;3.40;;;3.30;;
11319;SDS011;5715;48.234;14.320;2023-10-31T03:45:09;3.00;;;2.90;;
11319;SDS011;5715;48.234;14.320;2023-10-31T03:47:57;3.93;;;3.73;;
11319;SDS011;5715;48.234;14.320;2023-10-31T03:50:45;3.43;;;3.33;;
11319;SDS011;5715;48.234;14.320;2023-10-31T03:53:33;3.73;;;3.53;;
11319;SDS011;5715;48.234;14.320;2023-10-31T03:56:20;4.10;;;3.90;;
11319;SDS011;5715;48.234;14.320;2023-10-31T03:59:08;3.27;;;2.90;;
11319;SDS011;5715;48.234;14.320;2023-10-31T04:01:56;3.20;;;3.00;;
11319;SDS011;5715;48.234;14.320;2023-10-31T04:04:44;3.20;;;3.10;;
11319;SDS011;5715;48.234;14.320;2023-10-31T04:07:31;3.10;;;3.00;;
11319;SDS011;5715;48.234;14.320;2023-10-31T04:10:19;3.17;;;3.07;;
11319;SDS011;5715;48.234;14.320;2023-10-31T04:13:07;2.53;;;2.43;;
11319;SDS011;5715;48.234;14.320;2023-10-31T04:15:54;2.67;;;2.57;;
11319;SDS011;5715;48.234;14.320;2023-10-31T04:18:42;2.63;;;2.53;;
11319;SDS011;5715;48.234;14.320;2023-10-31T04:21:29;2.90;;;2.80;;
11319;SDS011;5715;48.234;14.320;2023-10-31T04:24:17;2.60;;;2.50;;
11319;SDS011;5715;48.234;14.320;2023-10-31T04:27:04;2.53;;;2.43;;
11319;SDS011;5715;48.234;14.320;2023-10-31T04:29:52;2.73;;;2.63;;
11319;SDS011;5715;48.234;14.320;2023-10-31T04:32:40;9.40;;;2.73;;
11319;SDS011;5715;48.234;14.320;2023-10-31T04:35:28;2.90;;;2.80;;
11319;SDS011;5715;48.234;14.320;2023-10-31T04:38:16;2.93;;;2.83;;
11319;SDS011;5715;48.234;14.320;2023-10-31T04:41:03;12.43;;;3.10;;
11319;SDS011;5715;48.234;14.320;2023-10-31T04:43:51;2.90;;;2.80;;
11319;SDS011;5715;48.234;14.320;2023-10-31T04:46:38;2.57;;;2.47;;
11319;SDS011;5715;48.234;14.320;2023-10-31T04:49:26;2.83;;;2.73;;
11319;SDS011;5715;48.234;14.320;2023-10-31T04:52:14;2.70;;;2.60;;
11319;SDS011;5715;48.234;14.320;2023-10-31T04:55:02;2.87;;;2.77;;
11319;SDS011;5715;48.234;14.320;2023-10-31T04:57:50;3.87;;;3.10;;
11319;SDS011;5715;48.234;14.320;2023-10-31T05:00:38;3.30;;;3.20;;
11319;SDS011;5715;48.234;14.320;2023-10-31T05:03:25;3.10;;;3.00;;
11319;SDS011;5715;48.234;14.320;2023-10-31T05:06:13;4.37;;;3.10;;
11319;SDS011;5715;48.234;14.320;2023-10-31T05:09:06;3.10;;;3.00;;
11319;SDS011;5715;48.234;14.320;2023-10-31T05:11:54;3.37;;;3.17;;
11319;SDS011;5715;48.234;14.320;2023-10-31T05:14:41;3.57;;;3.37;;
11319;SDS011;5715;48.234;14.320;2023-10-31T05:17:29;3.43;;;3.23;;
11319;SDS011;5715;48.234;14.320;2023-10-31T05:20:17;3.67;;;3.37;;
11319;SDS011;5715;48.234;14.320;2023-10-31T05:23:04;3.20;;;3.10;;
11319;SDS011;5715;48.234;14.320;2023-10-31T05:25:52;3.47;;;3.37;;
11319;SDS011;5715;48.234;14.320;2023-10-31T05:28:39;3.33;;;3.13;;
11319;SDS011;5715;48.234;14.320;2023-10-31T05:31:27;3.20;;;3.10;;
11319;SDS011;5715;48.234;14.320;2023-10-31T05:34:14;3.33;;;3.23;;
11319;SDS011;5715;48.234;14.320;2023-10-31T05:37:02;3.20;;;3.10;;
11319;SDS011;5715;48.234;14.320;2023-10-31T05:39:52;3.03;;;2.93;;
11319;SDS011;5715;48.234;14.320;2023-10-31T05:42:40;3.53;;;3.33;;
11319;SDS011;5715;48.234;14.320;2023-10-31T05:45:28;3.03;;;2.93;;
11319;SDS011;5715;48.234;14.320;2023-10-31T05:48:16;3.00;;;2.90;;
11319;SDS011;5715;48.234;14.320;2023-10-31T05:51:04;3.53;;;3.43;;
11319;SDS011;5715;48.234;14.320;2023-10-31T05:53:58;3.60;;;3.50;;
11319;SDS011;5715;48.234;14.320;2023-10-31T05:56:46;7.17;;;3.10;;
11319;SDS011;5715;48.234;14.320;2023-10-31T05:59:34;3.20;;;3.10;;
11319;SDS011;5715;48.234;14.320;2023-10-31T06:02:22;3.33;;;3.23;;
11319;SDS011;5715;48.234;14.320;2023-10-31T06:05:11;3.17;;;3.07;;
11319;SDS011;5715;48.234;14.320;2023-10-31T06:07:58;3.47;;;3.33;;
11319;SDS011;5715;48.234;14.320;2023-10-31T06:10:46;3.03;;;2.93;;
11319;SDS011;5715;48.234;14.320;2023-10-31T06:13:33;3.33;;;3.23;;
11319;SDS011;5715;48.234;14.320;2023-10-31T06:16:21;3.27;;;3.17;;
11319;SDS011;5715;48.234;14.320;2023-10-31T06:19:08;3.40;;;3.30;;
11319;SDS011;5715;48.234;14.320;2023-10-31T06:21:56;3.40;;;3.30;;
11319;SDS011;5715;48.234;14.320;2023-10-31T06:24:44;3.43;;;3.33;;
11319;SDS011;5715;48.234;14.320;2023-10-31T06:27:31;5.10;;;3.30;;
11319;SDS011;5715;48.234;14.320;2023-10-31T06:30:19;3.73;;;3.63;;
11319;SDS011;5715;48.234;14.320;2023-10-31T06:33:17;3.40;;;3.30;;
11319;SDS011;5715;48.234;14.320;2023-10-31T06:36:06;3.07;;;2.97;;
11319;SDS011;5715;48.234;14.320;2023-10-31T06:38:54;3.20;;;3.10;;
11319;SDS011;5715;48.234;14.320;2023-10-31T06:41:43;3.23;;;3.13;;
11319;SDS011;5715;48.234;14.320;2023-10-31T06:44:30;3.50;;;3.40;;
11319;SDS011;5715;48.234;14.320;2023-10-31T06:47:18;3.70;;;3.50;;
11319;SDS011;5715;48.234;14.320;2023-10-31T06:50:06;3.23;;;3.13;;
11319;SDS011;5715;48.234;14.320;2023-10-31T06:52:55;3.77;;;3.47;;
11319;SDS011;5715;48.234;14.320;2023-10-31T06:55:43;3.27;;;3.07;;
11319;SDS011;5715;48.234;14.320;2023-10-31T06:58:30;3.37;;;3.27;;
11319;SDS011;5715;48.234;14.320;2023-10-31T07:01:18;3.33;;;3.23;;
11319;SDS011;5715;48.234;14.320;2023-10-31T07:04:06;3.17;;;3.07;;
11319;SDS011;5715;48.234;14.320;2023-10-31T07:06:54;3.23;;;3.13;;
11319;SDS011;5715;48.234;14.320;2023-10-31T07:09:44;3.67;;;3.47;;
11319;SDS011;5715;48.234;14.320;2023-10-31T07:12:31;3.10;;;3.00;;
11319;SDS011;5715;48.234;14.320;2023-10-31T07:15:19;3.30;;;3.20;;
11319;SDS011;5715;48.234;14.320;2023-10-31T07:18:07;3.50;;;3.40;;
11319;SDS011;5715;48.234;14.320;2023-10-31T07:20:55;3.30;;;3.20;;
11319;SDS011;5715;48.234;14.320;2023-10-31T07:23:43;3.57;;;3.47;;
11319;SDS011;5715;48.234;14.320;2023-10-31T07:26:30;3.20;;;3.10;;
11319;SDS011;5715;48.234;14.320;2023-10-31T07:29:18;3.20;;;3.10;;
11319;SDS011;5715;48.234;14.320;2023-10-31T07:32:06;3.27;;;3.17;;
11319;SDS011;5715;48.234;14.320;2023-10-31T07:34:57;3.33;;;3.23;;
11319;SDS011;5715;48.234;14.320;2023-10-31T07:37:45;2.73;;;2.63;;
11319;SDS011;5715;48.234;14.320;2023-10-31T07:40:32;3.30;;;3.10;;
11319;SDS011;5715;48.234;14.320;2023-10-31T07:43:20;2.73;;;2.63;;
11319;SDS011;5715;48.234;14.320;2023-10-31T07:46:08;3.10;;;3.00;;
11319;SDS011;5715;48.234;14.320;2023-10-31T07:48:56;3.13;;;3.03;;
11319;SDS011;5715;48.234;14.320;2023-10-31T07:51:43;3.03;;;2.93;;
11319;SDS011;5715;48.234;14.320;2023-10-31T07:54:31;3.33;;;3.23;;
11319;SDS011;5715;48.234;14.320;2023-10-31T07:57:18;3.33;;;3.13;;
11319;SDS011;5715;48.234;14.320;2023-10-31T08:00:09;3.00;;;2.83;;
11319;SDS011;5715;48.234;14.320;2023-10-31T08:02:58;3.00;;;2.90;;
11319;SDS011;5715;48.234;14.320;2023-10-31T08:05:46;3.03;;;2.83;;
11319;SDS011;5715;48.234;14.320;2023-10-31T08:08:33;2.90;;;2.80;;
11319;SDS011;5715;48.234;14.320;2023-10-31T08:11:21;3.13;;;2.93;;
11319;SDS011;5715;48.234;14.320;2023-10-31T08:14:09;3.07;;;2.93;;
11319;SDS011;5715;48.234;14.320;2023-10-31T08:17:03;2.83;;;2.73;;
11319;SDS011;5715;48.234;14.320;2023-10-31T08:19:51;2.90;;;2.80;;
11319;SDS011;5715;48.234;14.320;2023-10-31T08:22:38;2.77;;;2.67;;
11319;SDS011;5715;48.234;14.320;2023-10-31T08:25:29;2.83;;;2.73;;
11319;SDS011;5715;48.234;14.320;2023-10-31T08:28:16;2.80;;;2.60;;
11319;SDS011;5715;48.234;14.320;2023-10-31T08:31:04;2.97;;;2.73;;
11319;SDS011;5715;48.234;14.320;2023-10-31T08:33:52;2.83;;;2.73;;
11319;SDS011;5715;48.234;14.320;2023-10-31T08:36:40;2.67;;;2.47;;
11319;SDS011;5715;48.234;14.320;2023-10-31T08:39:27;2.73;;;2.63;;
11319;SDS011;5715;48.234;14.320;2023-10-31T08:42:15;2.57;;;2.47;;
11319;SDS011;5715;48.234;14.320;2023-10-31T08:45:02;2.43;;;2.33;;
11319;SDS011;5715;48.234;14.320;2023-10-31T08:47:50;2.80;;;2.70;;
11319;SDS011;5715;48.234;14.320;2023-10-31T08:50:38;2.47;;;2.37;;
11319;SDS011;5715;48.234;14.320;2023-10-31T08:53:26;8.07;;;2.70;;
11319;SDS011;5715;48.234;14.320;2023-10-31T08:56:14;2.50;;;2.33;;
11319;SDS011;5715;48.234;14.320;2023-10-31T08:59:02;2.37;;;2.27;;
11319;SDS011;5715;48.234;14.320;2023-10-31T09:01:50;2.33;;;2.23;;
11319;SDS011;5715;48.234;14.320;2023-10-31T09:04:37;2.70;;;2.40;;
11319;SDS011;5715;48.234;14.320;2023-10-31T09:07:25;16.43;;;2.57;;
11319;SDS011;5715;48.234;14.320;2023-10-31T09:10:13;2.30;;;2.20;;
11319;SDS011;5715;48.234;14.320;2023-10-31T09:13:01;2.27;;;2.17;;
11319;SDS011;5715;48.234;14.320;2023-10-31T09:15:48;2.50;;;2.40;;
11319;SDS011;5715;48.234;14.320;2023-10-31T09:18:36;2.57;;;2.47;;
11319;SDS011;5715;48.234;14.320;2023-10-31T09:21:24;3.03;;;2.83;;
11319;SDS011;5715;48.234;14.320;2023-10-31T09:24:11;2.90;;;2.80;;
11319;SDS011;5715;48.234;14.320;2023-10-31T09:26:59;2.40;;;2.30;;
11319;SDS011;5715;48.234;14.320;2023-10-31T09:29:46;2.83;;;2.73;;
11319;SDS011;5715;48.234;14.320;2023-10-31T09:32:34;2.40;;;2.30;;
11319;SDS011;5715;48.234;14.320;2023-10-31T09:35:22;2.80;;;2.70;;
11319;SDS011;5715;48.234;14.320;2023-10-31T09:38:10;2.93;;;2.73;;
11319;SDS011;5715;48.234;14.320;2023-10-31T09:40:58;3.03;;;2.93;;
11319;SDS011;5715;48.234;14.320;2023-10-31T09:43:45;3.00;;;2.90;;
11319;SDS011;5715;48.234;14.320;2023-10-31T09:46:33;2.87;;;2.73;;
11319;SDS011;5715;48.234;14.320;2023-10-31T09:49:21;3.07;;;2.93;;
11319;SDS011;5715;48.234;14.320;2023-10-31T09:52:11;3.10;;;3.00;;
11319;SDS011;5715;48.234;14.320;2023-10-31T09:54:58;2.67;;;2.57;;
11319;SDS011;5715;48.234;14.320;2023-10-31T09:57:46;2.47;;;2.37;;
11319;SDS011;5715;48.234;14.320;2023-10-31T10:00:34;3.10;;;3.00;;
11319;SDS011;5715;48.234;14.320;2023-10-31T10:03:25;2.93;;;2.80;;
11319;SDS011;5715;48.234;14.320;2023-10-31T10:06:14;2.70;;;2.60;;
11319;SDS011;5715;48.234;14.320;2023-10-31T10:09:02;2.93;;;2.83;;
11319;SDS011;5715;48.234;14.320;2023-10-31T10:11:52;2.93;;;2.83;;
11319;SDS011;5715;48.234;14.320;2023-10-31T10:14:41;3.70;;;3.50;;
11319;SDS011;5715;48.234;14.320;2023-10-31T10:17:32;2.90;;;2.80;;
11319;SDS011;5715;48.234;14.320;2023-10-31T10:20:20;3.83;;;3.30;;
11319;SDS011;5715;48.234;14.320;2023-10-31T10:23:08;3.23;;;3.13;;
11319;SDS011;5715;48.234;14.320;2023-10-31T10:25:56;3.30;;;3.20;;
11319;SDS011;5715;48.234;14.320;2023-10-31T10:28:46;3.57;;;3.37;;
11319;SDS011;5715;48.234;14.320;2023-10-31T10:31:39;2.97;;;2.87;;
11319;SDS011;5715;48.234;14.320;2023-10-31T10:34:27;6.07;;;3.67;;
11319;SDS011;5715;48.234;14.320;2023-10-31T10:37:15;3.13;;;3.03;;
11319;SDS011;5715;48.234;14.320;2023-10-31T10:40:05;3.77;;;3.57;;
11319;SDS011;5715;48.234;14.320;2023-10-31T10:42:55;3.17;;;2.97;;
11319;SDS011;5715;48.234;14.320;2023-10-31T10:45:57;4.23;;;3.30;;
11319;SDS011;5715;48.234;14.320;2023-10-31T10:48:46;2.67;;;2.57;;
11319;SDS011;5715;48.234;14.320;2023-10-31T10:51:39;3.10;;;3.00;;
11319;SDS011;5715;48.234;14.320;2023-10-31T10:54:44;3.13;;;2.90;;
11319;SDS011;5715;48.234;14.320;2023-10-31T11:00:43;3.47;;;3.27;;
11319;SDS011;5715;48.234;14.320;2023-10-31T11:03:31;3.23;;;3.13;;
11319;SDS011;5715;48.234;14.320;2023-10-31T11:06:20;3.40;;;3.10;;
11319;SDS011;5715;48.234;14.320;2023-10-31T11:09:09;3.13;;;3.03;;
11319;SDS011;5715;48.234;14.320;2023-10-31T11:11:57;3.70;;;3.50;;
11319;SDS011;5715;48.234;14.320;2023-10-31T11:14:46;3.17;;;3.07;;
11319;SDS011;5715;48.234;14.320;2023-10-31T11:17:35;3.37;;;3.17;;
11319;SDS011;5715;48.234;14.320;2023-10-31T11:20:26;4.07;;;3.63;;
11319;SDS011;5715;48.234;14.320;2023-10-31T11:23:15;3.10;;;3.00;;
11319;SDS011;5715;48.234;14.320;2023-10-31T11:26:03;3.23;;;3.13;;
11319;SDS011;5715;48.234;14.320;2023-10-31T11:29:13;2.93;;;2.83;;
11319;SDS011;5715;48.234;14.320;2023-10-31T11:32:04;2.90;;;2.80;;
11319;SDS011;5715;48.234;14.320;2023-10-31T11:35:01;4.00;;;3.70;;
11319;SDS011;5715;48.234;14.320;2023-10-31T11:37:49;3.73;;;3.47;;
11319;SDS011;5715;48.234;14.320;2023-10-31T11:41:00;2.90;;;2.80;;
11319;SDS011;5715;48.234;14.320;2023-10-31T11:43:50;3.27;;;3.13;;
11319;SDS011;5715;48.234;14.320;2023-10-31T11:46:39;3.50;;;3.40;;
11319;SDS011;5715;48.234;14.320;2023-10-31T11:49:45;3.60;;;3.43;;
11319;SDS011;5715;48.234;14.320;2023-10-31T11:52:34;3.77;;;3.47;;
11319;SDS011;5715;48.234;14.320;2023-10-31T11:55:22;3.30;;;3.17;;
11319;SDS011;5715;48.234;14.320;2023-10-31T11:58:24;4.10;;;3.90;;
11319;SDS011;5715;48.234;14.320;2023-10-31T12:01:12;3.17;;;3.07;;
11319;SDS011;5715;48.234;14.320;2023-10-31T12:04:00;3.30;;;3.20;;
11319;SDS011;5715;48.234;14.320;2023-10-31T12:06:58;3.20;;;3.10;;
11319;SDS011;5715;48.234;14.320;2023-10-31T12:09:47;3.63;;;3.43;;
11319;SDS011;5715;48.234;14.320;2023-10-31T12:12:35;3.40;;;3.30;;
11319;SDS011;5715;48.234;14.320;2023-10-31T12:15:23;3.50;;;3.40;;
11319;SDS011;5715;48.234;14.320;2023-10-31T12:18:11;3.30;;;3.20;;
11319;SDS011;5715;48.234;14.320;2023-10-31T12:20:58;3.23;;;3.13;;
11319;SDS011;5715;48.234;14.320;2023-10-31T12:23:47;3.90;;;3.70;;
11319;SDS011;5715;48.234;14.320;2023-10-31T12:26:37;3.60;;;3.40;;
11319;SDS011;5715;48.234;14.320;2023-10-31T12:29:25;3.60;;;3.50;;
11319;SDS011;5715;48.234;14.320;2023-10-31T12:32:13;3.47;;;3.27;;
11319;SDS011;5715;48.234;14.320;2023-10-31T12:35:00;3.77;;;3.47;;
11319;SDS011;5715;48.234;14.320;2023-10-31T12:37:49;3.50;;;3.40;;
11319;SDS011;5715;48.234;14.320;2023-10-31T12:40:37;3.27;;;3.13;;
11319;SDS011;5715;48.234;14.320;2023-10-31T12:43:28;3.20;;;3.00;;
11319;SDS011;5715;48.234;14.320;2023-10-31T12:46:26;3.70;;;3.50;;
11319;SDS011;5715;48.234;14.320;2023-10-31T12:49:19;3.10;;;2.90;;
11319;SDS011;5715;48.234;14.320;2023-10-31T12:52:08;3.33;;;3.23;;
11319;SDS011;5715;48.234;14.320;2023-10-31T12:54:56;3.00;;;2.90;;
11319;SDS011;5715;48.234;14.320;2023-10-31T12:57:43;3.20;;;3.00;;
11319;SDS011;5715;48.234;14.320;2023-10-31T13:00:34;2.80;;;2.70;;
11319;SDS011;5715;48.234;14.320;2023-10-31T13:03:23;3.13;;;2.93;;
11319;SDS011;5715;48.234;14.320;2023-10-31T13:06:17;3.17;;;3.07;;
11319;SDS011;5715;48.234;14.320;2023-10-31T13:09:04;2.90;;;2.80;;
11319;SDS011;5715;48.234;14.320;2023-10-31T13:12:05;3.17;;;2.90;;
11319;SDS011;5715;48.234;14.320;2023-10-31T13:14:55;3.00;;;2.90;;
11319;SDS011;5715;48.234;14.320;2023-10-31T13:17:42;2.83;;;2.73;;
11319;SDS011;5715;48.234;14.320;2023-10-31T13:20:30;2.70;;;2.60;;
11319;SDS011;5715;48.234;14.320;2023-10-31T13:23:19;2.67;;;2.57;;
11319;SDS011;5715;48.234;14.320;2023-10-31T13:26:07;2.63;;;2.53;;
11319;SDS011;5715;48.234;14.320;2023-10-31T13:28:55;5.67;;;2.70;;
11319;SDS011;5715;48.234;14.320;2023-10-31T13:31:42;4.63;;;2.57;;
11319;SDS011;5715;48.234;14.320;2023-10-31T13:34:30;2.60;;;2.50;;
11319;SDS011;5715;48.234;14.320;2023-10-31T13:37:19;2.53;;;2.43;;
11319;SDS011;5715;48.234;14.320;2023-10-31T13:40:07;2.67;;;2.47;;
11319;SDS011;5715;48.234;14.320;2023-10-31T13:42:55;2.87;;;2.73;;
11319;SDS011;5715;48.234;14.320;2023-10-31T13:45:43;3.00;;;2.80;;
11319;SDS011;5715;48.234;14.320;2023-10-31T13:48:30;2.90;;;2.70;;
11319;SDS011;5715;48.234;14.320;2023-10-31T13:51:18;2.37;;;2.27;;
11319;SDS011;5715;48.234;14.320;2023-10-31T13:54:08;2.37;;;2.27;;
11319;SDS011;5715;48.234;14.320;2023-10-31T13:56:56;2.50;;;2.30;;
11319;SDS011;5715;48.234;14.320;2023-10-31T13:59:43;2.43;;;2.33;;
11319;SDS011;5715;48.234;14.320;2023-10-31T14:02:31;2.60;;;2.50;;
11319;SDS011;5715;48.234;14.320;2023-10-31T14:05:21;2.73;;;2.63;;
11319;SDS011;5715;48.234;14.320;2023-10-31T14:08:09;2.60;;;2.40;;
11319;SDS011;5715;48.234;14.320;2023-10-31T14:10:57;2.63;;;2.23;;
11319;SDS011;5715;48.234;14.320;2023-10-31T14:13:45;2.80;;;2.60;;
11319;SDS011;5715;48.234;14.320;2023-10-31T14:16:33;4.33;;;3.93;;
11319;SDS011;5715;48.234;14.320;2023-10-31T14:19:21;2.33;;;2.23;;
11319;SDS011;5715;48.234;14.320;2023-10-31T14:22:08;2.40;;;2.30;;
11319;SDS011;5715;48.234;14.320;2023-10-31T14:24:56;3.83;;;2.63;;
11319;SDS011;5715;48.234;14.320;2023-10-31T14:27:43;2.67;;;2.47;;
11319;SDS011;5715;48.234;14.320;2023-10-31T14:30:31;2.67;;;2.57;;
11319;SDS011;5715;48.234;14.320;2023-10-31T14:33:21;2.80;;;2.60;;
11319;SDS011;5715;48.234;14.320;2023-10-31T14:36:09;2.30;;;2.20;;
11319;SDS011;5715;48.234;14.320;2023-10-31T14:38:58;2.30;;;2.20;;
11319;SDS011;5715;48.234;14.320;2023-10-31T14:41:45;2.37;;;2.27;;
11319;SDS011;5715;48.234;14.320;2023-10-31T14:44:33;3.47;;;2.37;;
11319;SDS011;5715;48.234;14.320;2023-10-31T14:47:21;3.00;;;2.80;;
11319;SDS011;5715;48.234;14.320;2023-10-31T14:50:08;2.47;;;2.37;;
11319;SDS011;5715;48.234;14.320;2023-10-31T14:52:56;2.60;;;2.50;;
11319;SDS011;5715;48.234;14.320;2023-10-31T14:55:44;2.73;;;2.53;;
11319;SDS011;5715;48.234;14.320;2023-10-31T14:58:32;2.97;;;2.30;;
11319;SDS011;5715;48.234;14.320;2023-10-31T15:01:19;2.53;;;2.43;;
11319;SDS011;5715;48.234;14.320;2023-10-31T15:04:07;2.47;;;2.27;;
11319;SDS011;5715;48.234;14.320;2023-10-31T15:06:54;2.50;;;2.40;;
11319;SDS011;5715;48.234;14.320;2023-10-31T15:09:42;3.20;;;3.00;;
11319;SDS011;5715;48.234;14.320;2023-10-31T15:12:29;2.47;;;2.37;;
11319;SDS011;5715;48.234;14.320;2023-10-31T15:15:17;2.33;;;2.23;;
11319;SDS011;5715;48.234;14.320;2023-10-31T15:18:05;3.23;;;2.73;;
11319;SDS011;5715;48.234;14.320;2023-10-31T15:20:53;2.33;;;2.23;;
11319;SDS011;5715;48.234;14.320;2023-10-31T15:23:44;2.10;;;2.00;;
11319;SDS011;5715;48.234;14.320;2023-10-31T15:26:31;2.83;;;2.73;;
11319;SDS011;5715;48.234;14.320;2023-10-31T15:29:19;2.03;;;1.93;;
11319;SDS011;5715;48.234;14.320;2023-10-31T15:32:06;2.20;;;2.10;;
11319;SDS011;5715;48.234;14.320;2023-10-31T15:34:55;2.00;;;1.90;;
11319;SDS011;5715;48.234;14.320;2023-10-31T15:37:43;2.13;;;2.03;;
11319;SDS011;5715;48.234;14.320;2023-10-31T15:40:31;2.17;;;2.07;;
11319;SDS011;5715;48.234;14.320;2023-10-31T15:43:18;2.37;;;2.17;;
11319;SDS011;5715;48.234;14.320;2023-10-31T15:46:06;2.03;;;1.93;;
11319;SDS011;5715;48.234;14.320;2023-10-31T15:48:53;2.30;;;2.20;;
11319;SDS011;5715;48.234;14.320;2023-10-31T15:51:41;2.10;;;2.00;;
11319;SDS011;5715;48.234;14.320;2023-10-31T15:54:28;3.63;;;3.43;;
11319;SDS011;5715;48.234;14.320;2023-10-31T15:57:16;2.30;;;2.20;;
11319;SDS011;5715;48.234;14.320;2023-10-31T16:00:08;2.70;;;2.50;;
11319;SDS011;5715;48.234;14.320;2023-10-31T16:02:57;2.53;;;2.43;;
11319;SDS011;5715;48.234;14.320;2023-10-31T16:05:45;2.33;;;2.23;;
11319;SDS011;5715;48.234;14.320;2023-10-31T16:08:33;2.33;;;2.23;;
11319;SDS011;5715;48.234;14.320;2023-10-31T16:11:21;2.50;;;2.40;;
11319;SDS011;5715;48.234;14.320;2023-10-31T16:14:10;3.20;;;3.00;;
11319;SDS011;5715;48.234;14.320;2023-10-31T16:16:58;2.07;;;1.97;;
11319;SDS011;5715;48.234;14.320;2023-10-31T16:19:45;2.20;;;2.00;;
11319;SDS011;5715;48.234;14.320;2023-10-31T16:22:33;3.00;;;2.07;;
11319;SDS011;5715;48.234;14.320;2023-10-31T16:25:21;4.63;;;3.13;;
11319;SDS011;5715;48.234;14.320;2023-10-31T16:28:08;2.23;;;2.13;;
11319;SDS011;5715;48.234;14.320;2023-10-31T16:30:56;2.20;;;2.10;;
11319;SDS011;5715;48.234;14.320;2023-10-31T16:33:44;2.30;;;2.20;;
11319;SDS011;5715;48.234;14.320;2023-10-31T16:36:31;3.00;;;2.80;;
11319;SDS011;5715;48.234;14.320;2023-10-31T16:39:19;2.47;;;2.37;;
11319;SDS011;5715;48.234;14.320;2023-10-31T16:42:07;2.50;;;2.40;;
11319;SDS011;5715;48.234;14.320;2023-10-31T16:44:55;2.90;;;2.23;;
11319;SDS011;5715;48.234;14.320;2023-10-31T16:47:43;3.33;;;3.03;;
11319;SDS011;5715;48.234;14.320;2023-10-31T16:50:32;4.03;;;2.40;;
11319;SDS011;5715;48.234;14.320;2023-10-31T16:53:20;2.40;;;2.30;;
11319;SDS011;5715;48.234;14.320;2023-10-31T16:56:07;2.30;;;2.20;;
11319;SDS011;5715;48.234;14.320;2023-10-31T16:58:55;3.00;;;2.23;;